sensor_id;sensor_type;location;lat;lon;timestamp;P1;durP1;ratioP1;P2;durP2;ratioP2
76298;SDS011;65236;42.332;23.550;2022-12-10T00:01:44;330.17;;;308.67;;
76298;SDS011;65236;42.332;23.550;2022-12-10T00:04:10;380.30;;;354.80;;
76298;SDS011;65236;42.332;23.550;2022-12-10T00:06:37;270.88;;;253.55;;
76298;SDS011;65236;42.332;23.550;2022-12-10T00:09:04;262.48;;;246.65;;
76298;SDS011;65236;42.332;23.550;2022-12-10T00:11:31;318.38;;;297.38;;
76298;SDS011;65236;42.332;23.550;2022-12-10T00:13:57;225.75;;;212.40;;
76298;SDS011;65236;42.332;23.550;2022-12-10T00:16:24;237.33;;;222.43;;
76298;SDS011;65236;42.332;23.550;2022-12-10T00:18:51;241.77;;;226.05;;
76298;SDS011;65236;42.332;23.550;2022-12-10T00:21:18;239.82;;;223.80;;
76298;SDS011;65236;42.332;23.550;2022-12-10T00:23:50;241.55;;;224.20;;
76298;SDS011;65236;42.332;23.550;2022-12-10T00:26:17;373.33;;;347.43;;
76298;SDS011;65236;42.332;23.550;2022-12-10T00:28:44;369.92;;;344.85;;
76298;SDS011;65236;42.332;23.550;2022-12-10T00:31:14;212.75;;;199.80;;
76298;SDS011;65236;42.332;23.550;2022-12-10T00:33:45;440.50;;;410.08;;
76298;SDS011;65236;42.332;23.550;2022-12-10T00:36:15;360.95;;;336.30;;
76298;SDS011;65236;42.332;23.550;2022-12-10T00:38:42;440.70;;;410.97;;
76298;SDS011;65236;42.332;23.550;2022-12-10T00:41:09;418.48;;;389.52;;
76298;SDS011;65236;42.332;23.550;2022-12-10T00:43:35;290.20;;;271.98;;
76298;SDS011;65236;42.332;23.550;2022-12-10T00:46:01;268.33;;;250.80;;
76298;SDS011;65236;42.332;23.550;2022-12-10T00:48:27;297.00;;;277.13;;
76298;SDS011;65236;42.332;23.550;2022-12-10T00:51:03;229.47;;;213.63;;
76298;SDS011;65236;42.332;23.550;2022-12-10T00:53:30;150.32;;;141.32;;
76298;SDS011;65236;42.332;23.550;2022-12-10T00:55:58;202.35;;;189.80;;
76298;SDS011;65236;42.332;23.550;2022-12-10T00:58:26;208.30;;;193.80;;
76298;SDS011;65236;42.332;23.550;2022-12-10T01:00:53;272.20;;;253.13;;
76298;SDS011;65236;42.332;23.550;2022-12-10T01:03:19;245.95;;;229.95;;
76298;SDS011;65236;42.332;23.550;2022-12-10T01:05:45;223.15;;;209.52;;
76298;SDS011;65236;42.332;23.550;2022-12-10T01:08:10;280.20;;;262.17;;
76298;SDS011;65236;42.332;23.550;2022-12-10T01:10:36;395.03;;;368.20;;
76298;SDS011;65236;42.332;23.550;2022-12-10T01:13:01;275.25;;;257.83;;
76298;SDS011;65236;42.332;23.550;2022-12-10T01:15:27;426.17;;;395.23;;
76298;SDS011;65236;42.332;23.550;2022-12-10T01:17:53;297.42;;;278.15;;
76298;SDS011;65236;42.332;23.550;2022-12-10T01:20:18;350.37;;;325.27;;
76298;SDS011;65236;42.332;23.550;2022-12-10T01:22:44;341.57;;;317.23;;
76298;SDS011;65236;42.332;23.550;2022-12-10T01:25:09;386.07;;;357.20;;
76298;SDS011;65236;42.332;23.550;2022-12-10T01:27:34;350.58;;;326.20;;
76298;SDS011;65236;42.332;23.550;2022-12-10T01:30:00;343.80;;;320.43;;
76298;SDS011;65236;42.332;23.550;2022-12-10T01:32:25;398.53;;;370.40;;
76298;SDS011;65236;42.332;23.550;2022-12-10T01:34:51;389.27;;;361.97;;
76298;SDS011;65236;42.332;23.550;2022-12-10T01:37:16;376.13;;;349.83;;
76298;SDS011;65236;42.332;23.550;2022-12-10T01:39:41;381.20;;;354.55;;
76298;SDS011;65236;42.332;23.550;2022-12-10T01:42:09;234.33;;;219.80;;
76298;SDS011;65236;42.332;23.550;2022-12-10T01:47:06;209.60;;;196.17;;
76298;SDS011;65236;42.332;23.550;2022-12-10T01:49:33;431.45;;;397.80;;
76298;SDS011;65236;42.332;23.550;2022-12-10T01:52:00;382.40;;;354.17;;
76298;SDS011;65236;42.332;23.550;2022-12-10T01:54:27;385.33;;;357.47;;
76298;SDS011;65236;42.332;23.550;2022-12-10T01:57:17;322.58;;;300.27;;
76298;SDS011;65236;42.332;23.550;2022-12-10T01:59:45;210.80;;;196.23;;
76298;SDS011;65236;42.332;23.550;2022-12-10T02:05:12;344.67;;;320.30;;
76298;SDS011;65236;42.332;23.550;2022-12-10T02:08:14;197.45;;;185.70;;
76298;SDS011;65236;42.332;23.550;2022-12-10T02:10:53;268.58;;;252.05;;
76298;SDS011;65236;42.332;23.550;2022-12-10T02:13:45;256.00;;;238.95;;
76298;SDS011;65236;42.332;23.550;2022-12-10T02:16:26;333.83;;;310.38;;
76298;SDS011;65236;42.332;23.550;2022-12-10T02:19:03;356.27;;;330.30;;
76298;SDS011;65236;42.332;23.550;2022-12-10T02:21:38;317.42;;;295.67;;
76298;SDS011;65236;42.332;23.550;2022-12-10T02:24:08;332.25;;;308.45;;
76298;SDS011;65236;42.332;23.550;2022-12-10T02:29:24;366.90;;;339.77;;
76298;SDS011;65236;42.332;23.550;2022-12-10T02:31:56;159.57;;;149.20;;
76298;SDS011;65236;42.332;23.550;2022-12-10T02:34:28;306.75;;;284.83;;
76298;SDS011;65236;42.332;23.550;2022-12-10T02:36:57;298.73;;;276.63;;
76298;SDS011;65236;42.332;23.550;2022-12-10T02:39:28;392.45;;;362.52;;
76298;SDS011;65236;42.332;23.550;2022-12-10T02:41:59;331.33;;;307.38;;
76298;SDS011;65236;42.332;23.550;2022-12-10T02:44:28;343.67;;;318.07;;
76298;SDS011;65236;42.332;23.550;2022-12-10T02:46:56;393.20;;;362.63;;
76298;SDS011;65236;42.332;23.550;2022-12-10T02:49:23;185.60;;;172.50;;
76298;SDS011;65236;42.332;23.550;2022-12-10T02:51:50;255.30;;;239.55;;
76298;SDS011;65236;42.332;23.550;2022-12-10T03:02:34;51.05;;;46.95;;
76298;SDS011;65236;42.332;23.550;2022-12-10T03:05:17;8.13;;;7.53;;
76298;SDS011;65236;42.332;23.550;2022-12-10T03:13:21;7.45;;;6.95;;
76298;SDS011;65236;42.332;23.550;2022-12-10T03:15:52;8.45;;;7.95;;
76298;SDS011;65236;42.332;23.550;2022-12-10T03:18:19;7.28;;;6.80;;
76298;SDS011;65236;42.332;23.550;2022-12-10T03:20:50;9.02;;;8.52;;
76298;SDS011;65236;42.332;23.550;2022-12-10T03:23:17;8.03;;;7.53;;
76298;SDS011;65236;42.332;23.550;2022-12-10T03:25:44;8.40;;;7.80;;
76298;SDS011;65236;42.332;23.550;2022-12-10T03:28:12;8.20;;;7.70;;
76298;SDS011;65236;42.332;23.550;2022-12-10T03:30:38;14.50;;;13.23;;
76298;SDS011;65236;42.332;23.550;2022-12-10T03:33:06;36.15;;;33.00;;
76298;SDS011;65236;42.332;23.550;2022-12-10T03:35:31;333.90;;;309.07;;
76298;SDS011;65236;42.332;23.550;2022-12-10T03:37:58;238.85;;;223.10;;
76298;SDS011;65236;42.332;23.550;2022-12-10T03:40:24;218.70;;;204.45;;
76298;SDS011;65236;42.332;23.550;2022-12-10T03:42:50;231.15;;;216.65;;
76298;SDS011;65236;42.332;23.550;2022-12-10T03:45:15;242.73;;;227.73;;
76298;SDS011;65236;42.332;23.550;2022-12-10T03:47:41;353.70;;;328.15;;
76298;SDS011;65236;42.332;23.550;2022-12-10T03:50:08;26.60;;;24.42;;
76298;SDS011;65236;42.332;23.550;2022-12-10T03:52:34;103.03;;;95.93;;
76298;SDS011;65236;42.332;23.550;2022-12-10T03:54:59;260.13;;;240.93;;
76298;SDS011;65236;42.332;23.550;2022-12-10T03:57:25;408.83;;;377.67;;
76298;SDS011;65236;42.332;23.550;2022-12-10T03:59:50;433.63;;;399.98;;
76298;SDS011;65236;42.332;23.550;2022-12-10T04:02:16;440.33;;;406.47;;
76298;SDS011;65236;42.332;23.550;2022-12-10T04:04:41;449.50;;;414.80;;
76298;SDS011;65236;42.332;23.550;2022-12-10T04:07:07;450.30;;;415.33;;
76298;SDS011;65236;42.332;23.550;2022-12-10T04:09:32;141.88;;;131.02;;
76298;SDS011;65236;42.332;23.550;2022-12-10T04:11:58;61.83;;;58.47;;
76298;SDS011;65236;42.332;23.550;2022-12-10T04:14:25;18.48;;;17.05;;
76298;SDS011;65236;42.332;23.550;2022-12-10T04:17:10;235.57;;;218.65;;
76298;SDS011;65236;42.332;23.550;2022-12-10T04:19:36;146.27;;;137.70;;
76298;SDS011;65236;42.332;23.550;2022-12-10T04:22:01;339.73;;;314.65;;
76298;SDS011;65236;42.332;23.550;2022-12-10T04:24:45;425.17;;;393.07;;
76298;SDS011;65236;42.332;23.550;2022-12-10T04:27:33;83.95;;;78.63;;
76298;SDS011;65236;42.332;23.550;2022-12-10T04:30:02;230.40;;;213.93;;
76298;SDS011;65236;42.332;23.550;2022-12-10T04:32:30;287.48;;;268.08;;
76298;SDS011;65236;42.332;23.550;2022-12-10T04:34:55;452.27;;;417.37;;
76298;SDS011;65236;42.332;23.550;2022-12-10T04:37:21;467.93;;;430.63;;
76298;SDS011;65236;42.332;23.550;2022-12-10T04:39:48;325.92;;;302.20;;
76298;SDS011;65236;42.332;23.550;2022-12-10T04:42:14;470.00;;;432.65;;
76298;SDS011;65236;42.332;23.550;2022-12-10T04:44:40;81.97;;;74.20;;
76298;SDS011;65236;42.332;23.550;2022-12-10T04:47:06;151.68;;;140.52;;
76298;SDS011;65236;42.332;23.550;2022-12-10T04:49:32;147.50;;;137.88;;
76298;SDS011;65236;42.332;23.550;2022-12-10T04:51:58;373.50;;;346.57;;
76298;SDS011;65236;42.332;23.550;2022-12-10T04:54:23;421.33;;;389.67;;
76298;SDS011;65236;42.332;23.550;2022-12-10T04:56:49;211.50;;;198.55;;
76298;SDS011;65236;42.332;23.550;2022-12-10T04:59:15;204.80;;;192.63;;
76298;SDS011;65236;42.332;23.550;2022-12-10T05:01:41;398.05;;;368.38;;
76298;SDS011;65236;42.332;23.550;2022-12-10T05:04:07;518.90;;;478.83;;
76298;SDS011;65236;42.332;23.550;2022-12-10T05:06:34;433.83;;;400.73;;
76298;SDS011;65236;42.332;23.550;2022-12-10T05:09:00;384.27;;;354.52;;
76298;SDS011;65236;42.332;23.550;2022-12-10T05:11:28;40.57;;;33.20;;
76298;SDS011;65236;42.332;23.550;2022-12-10T05:13:54;40.70;;;36.40;;
76298;SDS011;65236;42.332;23.550;2022-12-10T05:16:21;10.52;;;9.63;;
76298;SDS011;65236;42.332;23.550;2022-12-10T05:18:48;77.72;;;72.68;;
76298;SDS011;65236;42.332;23.550;2022-12-10T05:21:15;208.23;;;195.65;;
76298;SDS011;65236;42.332;23.550;2022-12-10T05:23:43;58.77;;;55.33;;
76298;SDS011;65236;42.332;23.550;2022-12-10T05:26:11;99.28;;;92.88;;
76298;SDS011;65236;42.332;23.550;2022-12-10T05:28:38;277.48;;;257.45;;
76298;SDS011;65236;42.332;23.550;2022-12-10T05:31:10;122.60;;;114.22;;
76298;SDS011;65236;42.332;23.550;2022-12-10T05:33:37;12.40;;;11.23;;
76298;SDS011;65236;42.332;23.550;2022-12-10T05:36:03;205.63;;;192.73;;
76298;SDS011;65236;42.332;23.550;2022-12-10T05:38:30;16.35;;;14.85;;
76298;SDS011;65236;42.332;23.550;2022-12-10T05:41:03;112.90;;;104.73;;
76298;SDS011;65236;42.332;23.550;2022-12-10T05:43:30;81.80;;;74.93;;
76298;SDS011;65236;42.332;23.550;2022-12-10T05:46:09;24.40;;;16.48;;
76298;SDS011;65236;42.332;23.550;2022-12-10T05:48:36;30.25;;;26.75;;
76298;SDS011;65236;42.332;23.550;2022-12-10T05:51:03;39.67;;;19.60;;
76298;SDS011;65236;42.332;23.550;2022-12-10T05:53:32;80.10;;;72.83;;
76298;SDS011;65236;42.332;23.550;2022-12-10T05:56:11;227.93;;;213.23;;
76298;SDS011;65236;42.332;23.550;2022-12-10T05:58:39;126.50;;;117.33;;
76298;SDS011;65236;42.332;23.550;2022-12-10T06:01:06;97.28;;;89.78;;
76298;SDS011;65236;42.332;23.550;2022-12-10T06:03:34;103.18;;;96.82;;
76298;SDS011;65236;42.332;23.550;2022-12-10T06:05:59;119.90;;;112.93;;
76298;SDS011;65236;42.332;23.550;2022-12-10T06:08:25;391.70;;;364.55;;
76298;SDS011;65236;42.332;23.550;2022-12-10T06:10:50;262.60;;;246.53;;
76298;SDS011;65236;42.332;23.550;2022-12-10T06:13:15;181.53;;;169.77;;
76298;SDS011;65236;42.332;23.550;2022-12-10T06:15:41;29.77;;;27.60;;
76298;SDS011;65236;42.332;23.550;2022-12-10T06:18:07;161.27;;;150.48;;
76298;SDS011;65236;42.332;23.550;2022-12-10T06:20:33;21.00;;;15.63;;
76298;SDS011;65236;42.332;23.550;2022-12-10T06:22:59;31.95;;;17.63;;
76298;SDS011;65236;42.332;23.550;2022-12-10T06:25:24;172.63;;;158.07;;
76298;SDS011;65236;42.332;23.550;2022-12-10T06:27:50;291.65;;;271.42;;
76298;SDS011;65236;42.332;23.550;2022-12-10T06:30:15;278.17;;;259.63;;
76298;SDS011;65236;42.332;23.550;2022-12-10T06:32:41;175.70;;;164.67;;
76298;SDS011;65236;42.332;23.550;2022-12-10T06:35:08;293.98;;;274.15;;
76298;SDS011;65236;42.332;23.550;2022-12-10T06:37:34;127.13;;;120.18;;
76298;SDS011;65236;42.332;23.550;2022-12-10T06:39:59;102.47;;;95.80;;
76298;SDS011;65236;42.332;23.550;2022-12-10T06:42:24;211.27;;;197.20;;
76298;SDS011;65236;42.332;23.550;2022-12-10T06:44:50;199.43;;;186.13;;
76298;SDS011;65236;42.332;23.550;2022-12-10T06:47:16;34.80;;;25.43;;
76298;SDS011;65236;42.332;23.550;2022-12-10T06:49:41;311.80;;;288.50;;
76298;SDS011;65236;42.332;23.550;2022-12-10T06:52:07;110.43;;;103.03;;
76298;SDS011;65236;42.332;23.550;2022-12-10T06:54:32;279.70;;;260.33;;
76298;SDS011;65236;42.332;23.550;2022-12-10T06:56:58;285.87;;;268.17;;
76298;SDS011;65236;42.332;23.550;2022-12-10T06:59:24;246.82;;;231.45;;
76298;SDS011;65236;42.332;23.550;2022-12-10T07:01:49;297.30;;;277.83;;
76298;SDS011;65236;42.332;23.550;2022-12-10T07:04:15;281.63;;;263.97;;
76298;SDS011;65236;42.332;23.550;2022-12-10T07:06:41;306.48;;;287.40;;
76298;SDS011;65236;42.332;23.550;2022-12-10T07:09:06;79.53;;;73.23;;
76298;SDS011;65236;42.332;23.550;2022-12-10T07:11:31;92.77;;;85.23;;
76298;SDS011;65236;42.332;23.550;2022-12-10T07:13:57;117.37;;;109.00;;
76298;SDS011;65236;42.332;23.550;2022-12-10T07:16:25;345.92;;;323.13;;
76298;SDS011;65236;42.332;23.550;2022-12-10T07:18:52;93.45;;;87.70;;
76298;SDS011;65236;42.332;23.550;2022-12-10T07:21:24;75.88;;;71.43;;
76298;SDS011;65236;42.332;23.550;2022-12-10T07:23:51;434.90;;;403.15;;
76298;SDS011;65236;42.332;23.550;2022-12-10T07:26:23;43.73;;;40.93;;
76298;SDS011;65236;42.332;23.550;2022-12-10T07:28:49;67.20;;;63.10;;
76298;SDS011;65236;42.332;23.550;2022-12-10T07:31:15;268.80;;;251.77;;
76298;SDS011;65236;42.332;23.550;2022-12-10T07:33:41;236.07;;;221.37;;
76298;SDS011;65236;42.332;23.550;2022-12-10T07:36:07;255.80;;;238.85;;
76298;SDS011;65236;42.332;23.550;2022-12-10T07:38:34;282.48;;;263.42;;
76298;SDS011;65236;42.332;23.550;2022-12-10T07:41:10;391.97;;;360.30;;
76298;SDS011;65236;42.332;23.550;2022-12-10T07:43:37;454.42;;;417.25;;
76298;SDS011;65236;42.332;23.550;2022-12-10T07:46:05;545.20;;;500.33;;
76298;SDS011;65236;42.332;23.550;2022-12-10T07:48:33;355.63;;;327.80;;
76298;SDS011;65236;42.332;23.550;2022-12-10T07:51:00;415.73;;;381.50;;
76298;SDS011;65236;42.332;23.550;2022-12-10T07:53:25;507.87;;;467.20;;
76298;SDS011;65236;42.332;23.550;2022-12-10T07:55:51;412.23;;;380.53;;
76298;SDS011;65236;42.332;23.550;2022-12-10T07:58:16;472.67;;;434.63;;
76298;SDS011;65236;42.332;23.550;2022-12-10T08:00:42;427.33;;;393.00;;
76298;SDS011;65236;42.332;23.550;2022-12-10T08:03:07;487.37;;;446.97;;
76298;SDS011;65236;42.332;23.550;2022-12-10T08:05:32;536.80;;;492.15;;
76298;SDS011;65236;42.332;23.550;2022-12-10T08:07:58;284.63;;;265.27;;
76298;SDS011;65236;42.332;23.550;2022-12-10T08:10:23;464.97;;;426.83;;
76298;SDS011;65236;42.332;23.550;2022-12-10T08:12:49;397.67;;;365.37;;
76298;SDS011;65236;42.332;23.550;2022-12-10T08:15:14;553.17;;;506.07;;
76298;SDS011;65236;42.332;23.550;2022-12-10T08:17:39;526.08;;;482.75;;
76298;SDS011;65236;42.332;23.550;2022-12-10T08:20:05;12.80;;;11.70;;
76298;SDS011;65236;42.332;23.550;2022-12-10T08:22:31;8.82;;;8.32;;
76298;SDS011;65236;42.332;23.550;2022-12-10T08:24:59;9.65;;;9.05;;
76298;SDS011;65236;42.332;23.550;2022-12-10T08:27:24;9.00;;;8.50;;
76298;SDS011;65236;42.332;23.550;2022-12-10T08:29:50;10.43;;;9.83;;
76298;SDS011;65236;42.332;23.550;2022-12-10T08:32:15;9.00;;;8.40;;
76298;SDS011;65236;42.332;23.550;2022-12-10T08:34:40;7.63;;;7.13;;
76298;SDS011;65236;42.332;23.550;2022-12-10T08:37:06;7.33;;;6.87;;
76298;SDS011;65236;42.332;23.550;2022-12-10T08:39:31;10.07;;;9.47;;
76298;SDS011;65236;42.332;23.550;2022-12-10T08:41:57;8.20;;;7.70;;
76298;SDS011;65236;42.332;23.550;2022-12-10T08:44:22;6.87;;;6.47;;
76298;SDS011;65236;42.332;23.550;2022-12-10T08:46:48;10.30;;;9.70;;
76298;SDS011;65236;42.332;23.550;2022-12-10T08:49:13;8.67;;;8.17;;
76298;SDS011;65236;42.332;23.550;2022-12-10T08:51:38;9.90;;;9.30;;
76298;SDS011;65236;42.332;23.550;2022-12-10T08:54:04;9.80;;;9.20;;
76298;SDS011;65236;42.332;23.550;2022-12-10T08:56:29;10.17;;;9.57;;
76298;SDS011;65236;42.332;23.550;2022-12-10T08:58:55;10.65;;;10.05;;
76298;SDS011;65236;42.332;23.550;2022-12-10T09:01:21;11.67;;;10.97;;
76298;SDS011;65236;42.332;23.550;2022-12-10T09:03:46;10.85;;;10.25;;
76298;SDS011;65236;42.332;23.550;2022-12-10T09:06:13;13.93;;;13.13;;
76298;SDS011;65236;42.332;23.550;2022-12-10T09:08:41;10.80;;;10.20;;
76298;SDS011;65236;42.332;23.550;2022-12-10T09:11:07;9.80;;;9.20;;
76298;SDS011;65236;42.332;23.550;2022-12-10T09:13:38;13.32;;;12.55;;
76298;SDS011;65236;42.332;23.550;2022-12-10T09:16:04;10.68;;;10.07;;
76298;SDS011;65236;42.332;23.550;2022-12-10T09:18:30;13.48;;;12.68;;
76298;SDS011;65236;42.332;23.550;2022-12-10T09:20:55;13.57;;;12.77;;
76298;SDS011;65236;42.332;23.550;2022-12-10T09:23:21;15.27;;;14.27;;
76298;SDS011;65236;42.332;23.550;2022-12-10T09:25:46;16.13;;;14.93;;
76298;SDS011;65236;42.332;23.550;2022-12-10T09:28:12;11.77;;;11.07;;
76298;SDS011;65236;42.332;23.550;2022-12-10T09:30:37;14.83;;;14.03;;
76298;SDS011;65236;42.332;23.550;2022-12-10T09:33:03;13.70;;;12.90;;
76298;SDS011;65236;42.332;23.550;2022-12-10T09:35:29;10.37;;;9.77;;
76298;SDS011;65236;42.332;23.550;2022-12-10T09:37:54;11.30;;;10.60;;
76298;SDS011;65236;42.332;23.550;2022-12-10T09:40:32;10.13;;;9.53;;
76298;SDS011;65236;42.332;23.550;2022-12-10T09:43:12;10.97;;;10.33;;
76298;SDS011;65236;42.332;23.550;2022-12-10T09:46:31;12.15;;;11.45;;
76298;SDS011;65236;42.332;23.550;2022-12-10T09:51:34;14.73;;;13.93;;
76298;SDS011;65236;42.332;23.550;2022-12-10T09:54:02;12.63;;;11.93;;
76298;SDS011;65236;42.332;23.550;2022-12-10T09:56:37;14.00;;;13.20;;
76298;SDS011;65236;42.332;23.550;2022-12-10T09:59:39;13.02;;;12.30;;
76298;SDS011;65236;42.332;23.550;2022-12-10T10:02:44;10.50;;;9.90;;
76298;SDS011;65236;42.332;23.550;2022-12-10T10:04:44;14.15;;;13.35;;
76298;SDS011;65236;42.332;23.550;2022-12-10T10:07:11;13.10;;;12.33;;
76298;SDS011;65236;42.332;23.550;2022-12-10T10:09:45;12.43;;;11.73;;
76298;SDS011;65236;42.332;23.550;2022-12-10T10:12:14;13.27;;;12.50;;
76298;SDS011;65236;42.332;23.550;2022-12-10T10:14:40;14.77;;;13.98;;
76298;SDS011;65236;42.332;23.550;2022-12-10T10:17:17;12.13;;;11.43;;
76298;SDS011;65236;42.332;23.550;2022-12-10T10:19:47;14.20;;;13.40;;
76298;SDS011;65236;42.332;23.550;2022-12-10T10:22:14;16.63;;;15.73;;
76298;SDS011;65236;42.332;23.550;2022-12-10T10:24:43;14.27;;;13.48;;
76298;SDS011;65236;42.332;23.550;2022-12-10T10:29:47;13.18;;;12.38;;
76298;SDS011;65236;42.332;23.550;2022-12-10T10:34:55;15.05;;;14.15;;
76298;SDS011;65236;42.332;23.550;2022-12-10T10:37:26;13.73;;;12.93;;
76298;SDS011;65236;42.332;23.550;2022-12-10T10:39:54;17.35;;;16.35;;
76298;SDS011;65236;42.332;23.550;2022-12-10T10:42:25;15.82;;;14.93;;
76298;SDS011;65236;42.332;23.550;2022-12-10T10:45:03;16.47;;;15.50;;
76298;SDS011;65236;42.332;23.550;2022-12-10T10:47:32;15.45;;;14.55;;
76298;SDS011;65236;42.332;23.550;2022-12-10T10:49:59;13.50;;;12.70;;
76298;SDS011;65236;42.332;23.550;2022-12-10T10:52:37;10.23;;;9.63;;
76298;SDS011;65236;42.332;23.550;2022-12-10T10:55:04;12.97;;;12.17;;
76298;SDS011;65236;42.332;23.550;2022-12-10T11:00:18;10.98;;;10.30;;
76298;SDS011;65236;42.332;23.550;2022-12-10T11:02:47;11.00;;;10.27;;
76298;SDS011;65236;42.332;23.550;2022-12-10T11:07:49;12.30;;;11.60;;
76298;SDS011;65236;42.332;23.550;2022-12-10T11:10:38;11.10;;;10.40;;
76298;SDS011;65236;42.332;23.550;2022-12-10T11:13:24;9.80;;;9.18;;
76298;SDS011;65236;42.332;23.550;2022-12-10T11:20:57;10.43;;;9.73;;
76298;SDS011;65236;42.332;23.550;2022-12-10T11:23:26;12.30;;;11.50;;
76298;SDS011;65236;42.332;23.550;2022-12-10T11:25:56;12.18;;;11.38;;
76298;SDS011;65236;42.332;23.550;2022-12-10T11:31:18;11.10;;;10.40;;
76298;SDS011;65236;42.332;23.550;2022-12-10T11:38:50;10.30;;;9.60;;
76298;SDS011;65236;42.332;23.550;2022-12-10T11:41:25;10.48;;;9.77;;
76298;SDS011;65236;42.332;23.550;2022-12-10T11:50:01;7.97;;;7.47;;
76298;SDS011;65236;42.332;23.550;2022-12-10T11:52:36;9.27;;;8.68;;
76298;SDS011;65236;42.332;23.550;2022-12-10T11:58:17;11.27;;;10.38;;
76298;SDS011;65236;42.332;23.550;2022-12-10T12:01:07;8.32;;;7.82;;
76298;SDS011;65236;42.332;23.550;2022-12-10T12:04:06;8.87;;;8.17;;
76298;SDS011;65236;42.332;23.550;2022-12-10T12:14:41;9.27;;;8.57;;
76298;SDS011;65236;42.332;23.550;2022-12-10T12:17:23;8.15;;;7.55;;
76298;SDS011;65236;42.332;23.550;2022-12-10T12:19:54;10.02;;;9.40;;
76298;SDS011;65236;42.332;23.550;2022-12-10T12:24:58;10.93;;;10.10;;
76298;SDS011;65236;42.332;23.550;2022-12-10T12:30:06;7.00;;;6.50;;
76298;SDS011;65236;42.332;23.550;2022-12-10T12:35:41;10.30;;;9.70;;
76298;SDS011;65236;42.332;23.550;2022-12-10T12:41:05;8.77;;;8.20;;
76298;SDS011;65236;42.332;23.550;2022-12-10T12:43:44;10.80;;;10.00;;
76298;SDS011;65236;42.332;23.550;2022-12-10T12:46:29;11.63;;;10.63;;
76298;SDS011;65236;42.332;23.550;2022-12-10T12:51:29;11.70;;;10.60;;
76298;SDS011;65236;42.332;23.550;2022-12-10T12:53:56;11.37;;;10.47;;
76298;SDS011;65236;42.332;23.550;2022-12-10T12:59:56;8.87;;;8.17;;
76298;SDS011;65236;42.332;23.550;2022-12-10T13:05:17;10.13;;;9.52;;
76298;SDS011;65236;42.332;23.550;2022-12-10T13:11:18;11.85;;;10.68;;
76298;SDS011;65236;42.332;23.550;2022-12-10T13:13:35;8.27;;;7.77;;
76298;SDS011;65236;42.332;23.550;2022-12-10T13:16:33;10.35;;;9.65;;
76298;SDS011;65236;42.332;23.550;2022-12-10T13:40:22;9.80;;;8.73;;
76298;SDS011;65236;42.332;23.550;2022-12-10T13:43:26;8.98;;;8.35;;
76298;SDS011;65236;42.332;23.550;2022-12-10T13:46:34;9.02;;;7.97;;
76298;SDS011;65236;42.332;23.550;2022-12-10T13:49:19;10.00;;;9.30;;
76298;SDS011;65236;42.332;23.550;2022-12-10T13:54:25;9.60;;;8.90;;
76298;SDS011;65236;42.332;23.550;2022-12-10T13:57:30;10.68;;;9.93;;
76298;SDS011;65236;42.332;23.550;2022-12-10T14:08:09;14.63;;;10.88;;
76298;SDS011;65236;42.332;23.550;2022-12-10T14:10:40;12.48;;;10.77;;
76298;SDS011;65236;42.332;23.550;2022-12-10T14:13:06;10.97;;;9.87;;
76298;SDS011;65236;42.332;23.550;2022-12-10T14:15:34;13.18;;;10.70;;
76298;SDS011;65236;42.332;23.550;2022-12-10T14:18:18;9.32;;;8.43;;
76298;SDS011;65236;42.332;23.550;2022-12-10T14:20:56;12.90;;;10.63;;
76298;SDS011;65236;42.332;23.550;2022-12-10T14:23:39;7.97;;;7.18;;
76298;SDS011;65236;42.332;23.550;2022-12-10T14:26:19;11.77;;;10.07;;
76298;SDS011;65236;42.332;23.550;2022-12-10T14:28:54;11.82;;;10.45;;
76298;SDS011;65236;42.332;23.550;2022-12-10T14:31:49;9.63;;;9.02;;
76298;SDS011;65236;42.332;23.550;2022-12-10T14:34:29;9.43;;;8.83;;
76298;SDS011;65236;42.332;23.550;2022-12-10T14:37:10;7.43;;;6.93;;
76298;SDS011;65236;42.332;23.550;2022-12-10T14:39:54;8.65;;;8.10;;
76298;SDS011;65236;42.332;23.550;2022-12-10T14:42:29;9.95;;;9.25;;
76298;SDS011;65236;42.332;23.550;2022-12-10T14:45:05;10.45;;;9.50;;
76298;SDS011;65236;42.332;23.550;2022-12-10T14:50:34;10.13;;;9.35;;
76298;SDS011;65236;42.332;23.550;2022-12-10T14:53:00;10.83;;;9.93;;
76298;SDS011;65236;42.332;23.550;2022-12-10T14:55:38;10.35;;;9.32;;
76298;SDS011;65236;42.332;23.550;2022-12-10T15:01:53;223.70;;;209.68;;
76298;SDS011;65236;42.332;23.550;2022-12-10T15:04:24;656.40;;;608.50;;
76298;SDS011;65236;42.332;23.550;2022-12-10T15:07:26;29.77;;;26.83;;
76298;SDS011;65236;42.332;23.550;2022-12-10T15:19:34;302.45;;;281.73;;
76298;SDS011;65236;42.332;23.550;2022-12-10T15:22:20;175.40;;;164.50;;
76298;SDS011;65236;42.332;23.550;2022-12-10T15:24:50;158.93;;;148.50;;
76298;SDS011;65236;42.332;23.550;2022-12-10T15:27:22;147.87;;;138.67;;
76298;SDS011;65236;42.332;23.550;2022-12-10T15:29:49;225.73;;;211.30;;
76298;SDS011;65236;42.332;23.550;2022-12-10T15:32:16;187.50;;;176.35;;
76298;SDS011;65236;42.332;23.550;2022-12-10T15:34:47;190.68;;;179.43;;
76298;SDS011;65236;42.332;23.550;2022-12-10T15:37:27;231.63;;;217.65;;
76298;SDS011;65236;42.332;23.550;2022-12-10T15:39:59;206.33;;;194.27;;
76298;SDS011;65236;42.332;23.550;2022-12-10T15:47:50;112.50;;;104.55;;
76298;SDS011;65236;42.332;23.550;2022-12-10T15:50:16;117.37;;;109.97;;
76298;SDS011;65236;42.332;23.550;2022-12-10T15:52:43;125.43;;;118.53;;
76298;SDS011;65236;42.332;23.550;2022-12-10T15:55:10;106.95;;;101.03;;
76298;SDS011;65236;42.332;23.550;2022-12-10T15:57:37;118.82;;;112.22;;
76298;SDS011;65236;42.332;23.550;2022-12-10T16:00:15;80.53;;;76.03;;
76298;SDS011;65236;42.332;23.550;2022-12-10T16:05:16;91.63;;;86.33;;
76298;SDS011;65236;42.332;23.550;2022-12-10T16:07:50;104.22;;;98.50;;
76298;SDS011;65236;42.332;23.550;2022-12-10T16:10:19;113.85;;;107.53;;
76298;SDS011;65236;42.332;23.550;2022-12-10T16:12:47;233.73;;;219.30;;
76298;SDS011;65236;42.332;23.550;2022-12-10T16:15:21;159.07;;;149.93;;
76298;SDS011;65236;42.332;23.550;2022-12-10T16:17:49;267.40;;;250.53;;
76298;SDS011;65236;42.332;23.550;2022-12-10T16:20:23;293.80;;;274.42;;
76298;SDS011;65236;42.332;23.550;2022-12-10T16:22:53;321.95;;;299.90;;
76298;SDS011;65236;42.332;23.550;2022-12-10T16:25:20;310.75;;;289.80;;
76298;SDS011;65236;42.332;23.550;2022-12-10T16:27:47;170.68;;;160.60;;
76298;SDS011;65236;42.332;23.550;2022-12-10T16:30:14;224.83;;;210.57;;
76298;SDS011;65236;42.332;23.550;2022-12-10T16:32:43;182.90;;;170.68;;
76298;SDS011;65236;42.332;23.550;2022-12-10T16:35:08;165.37;;;153.80;;
76298;SDS011;65236;42.332;23.550;2022-12-10T16:37:35;163.88;;;153.32;;
76298;SDS011;65236;42.332;23.550;2022-12-10T16:40:00;164.80;;;154.77;;